Time;durP1;ratioP1;P1;durP2;ratioP2;P2;SDS_P1;SDS_P2;PMS_P1;PMS_P2;Temp;Humidity;BMP_temperature;BMP_pressure;BME280_temperature;BME280_humidity;BME280_pressure;Samples;Min_cycle;Max_cycle;Signal;HPM_P1;HPM_P2
2023/01/23 00:01:12;;;;;;;;;;;;;;;2.06;87.21;103001.66;4101152;28;20029;-59
2023/01/23 00:03:14;;;;;;;;;;;;;;;2.06;87.19;103007.00;4101733;28;20396;-60
2023/01/23 00:05:16;;;;;;;;;;;;;;;2.06;87.24;103010.53;4103670;28;20447;-60
2023/01/23 00:07:18;;;;;;;;;;;;;;;2.05;87.25;103014.09;4102446;28;20017;-61
2023/01/23 00:09:20;;;;;;;;;;;;;;;2.06;87.31;103002.53;4104384;28;20012;-61
2023/01/23 00:11:22;;;;;;;;;;;;;;;2.07;87.09;103001.59;4103181;28;20021;-60
2023/01/23 00:13:24;;;;;;;;;;;;;;;2.08;87.08;103016.63;4103867;28;20017;-60
2023/01/23 00:15:27;;;;;;;;;;;;;;;2.08;86.91;103015.78;4104069;28;19931;-60
2023/01/23 00:17:29;;;;;;;;;;;;;;;2.08;86.96;103010.44;4106567;28;20005;-61
2023/01/23 00:19:31;;;;;;;;;;;;;;;2.07;86.79;103012.25;4107230;28;20033;-60
2023/01/23 00:21:33;;;;;;;;;;;;;;;2.06;86.92;103007.84;4106605;28;20017;-60
2023/01/23 00:23:35;;;;;;;;;;;;;;;2.06;86.74;103010.53;4106036;28;20757;-60
2023/01/23 00:25:37;;;;;;;;;;;;;;;2.05;86.97;103008.78;4106907;28;20040;-59
2023/01/23 00:27:39;;;;;;;;;;;;;;;2.06;87.04;103013.19;4106798;28;20040;-60
2023/01/23 00:29:41;;;;;;;;;;;;;;;2.07;87.09;103009.59;4107723;28;20468;-60
2023/01/23 00:31:45;;;;;;;;;;;;;;;2.07;87.36;103009.59;4104707;28;20021;-59
2023/01/23 00:33:47;;;;;;;;;;;;;;;2.09;87.15;103007.72;4105509;28;20021;-59
2023/01/23 00:35:49;;;;;;;;;;;;;;;2.09;87.18;103005.06;4113589;28;20408;-60
2023/01/23 00:37:51;;;;;;;;;;;;;;;2.10;87.16;102997.91;4106213;28;20017;-60
2023/01/23 00:39:53;;;;;;;;;;;;;;;2.09;86.89;103010.38;4104815;28;20468;-60
2023/01/23 00:41:55;;;;;;;;;;;;;;;2.08;86.93;103013.97;4104851;28;20029;-61
2023/01/23 00:43:59;;;;;;;;;;;;;;;2.08;86.96;103011.31;4105897;28;20029;-60
2023/01/23 00:46:01;;;;;;;;;;;;;;;2.09;87.09;103021.06;4104396;28;20022;-58
2023/01/23 00:48:05;;;;;;;;;;;;;;;2.08;86.94;103013.97;4106642;28;20021;-59
2023/01/23 00:50:07;;;;;;;;;;;;;;;2.07;86.91;103014.94;4106341;28;20022;-59
2023/01/23 00:52:09;;;;;;;;;;;;;;;2.07;87.06;103022.94;4105059;28;20061;-60
2023/01/23 00:54:11;;;;;;;;;;;;;;;2.07;87.13;103028.25;4105765;28;20048;-61
2023/01/23 00:56:13;;;;;;;;;;;;;;;2.07;86.92;103022.03;4105870;28;19926;-60
2023/01/23 00:58:14;;;;;;;;;;;;;;;2.07;86.95;103019.38;4105568;28;20021;-57
2023/01/23 01:00:17;;;;;;;;;;;;;;;2.05;87.15;103024.78;4106365;28;20036;-59
2023/01/23 01:02:19;;;;;;;;;;;;;;;2.04;87.23;103027.50;4105301;28;20395;-60
2023/01/23 01:04:23;;;;;;;;;;;;;;;2.05;87.09;103026.56;4106868;28;20052;-60
2023/01/23 01:06:25;;;;;;;;;;;;;;;2.05;87.33;103024.78;4103959;28;20001;-58
2023/01/23 01:08:27;;;;;;;;;;;;;;;2.06;87.26;103031.84;4105328;28;20021;-60
2023/01/23 01:10:30;;;;;;;;;;;;;;;2.06;87.18;103028.31;4106327;28;20021;-61
2023/01/23 01:12:32;;;;;;;;;;;;;;;2.06;87.16;103037.19;4104345;28;20401;-59
2023/01/23 01:14:34;;;;;;;;;;;;;;;2.06;87.36;103034.50;4105589;28;20025;-58
2023/01/23 01:16:36;;;;;;;;;;;;;;;2.06;87.25;103037.19;4104583;28;19972;-59
2023/01/23 01:18:39;;;;;;;;;;;;;;;2.06;87.52;103044.31;4104822;28;20018;-59
2023/01/23 01:20:42;;;;;;;;;;;;;;;2.06;87.52;103034.50;4118645;28;20511;-61
2023/01/23 01:22:44;;;;;;;;;;;;;;;2.07;87.46;103040.69;4103626;28;20036;-58
2023/01/23 01:24:46;;;;;;;;;;;;;;;2.07;87.35;103036.25;4105307;28;20637;-60
2023/01/23 01:26:48;;;;;;;;;;;;;;;2.07;87.23;103038.91;4105033;28;20025;-61
2023/01/23 01:28:50;;;;;;;;;;;;;;;2.07;87.23;103043.38;4121159;28;20012;-59
2023/01/23 01:30:52;;;;;;;;;;;;;;;2.07;87.29;103046.91;4105590;28;20050;-59
2023/01/23 01:32:54;;;;;;;;;;;;;;;2.08;87.24;103045.97;4103182;28;20463;-61
2023/01/23 01:34:56;;;;;;;;;;;;;;;2.09;87.24;103057.50;4113050;28;20030;-61
2023/01/23 01:36:59;;;;;;;;;;;;;;;2.09;87.34;103047.72;4104572;28;20461;-61
2023/01/23 01:39:01;;;;;;;;;;;;;;;2.10;87.32;103054.78;4106082;28;20476;-59
2023/01/23 01:41:03;;;;;;;;;;;;;;;2.11;87.25;103060.97;4106229;28;20043;-60
2023/01/23 01:43:06;;;;;;;;;;;;;;;2.11;87.31;103067.16;4104330;28;20032;-61
2023/01/23 01:45:22;;;;;;;;;;;;;;;2.12;87.13;103063.56;4106235;28;20742;-59
2023/01/23 01:47:24;;;;;;;;;;;;;;;2.13;87.04;103067.97;4103165;28;20424;-61
2023/01/23 01:49:28;;;;;;;;;;;;;;;2.13;86.81;103075.09;4104621;28;20028;-59
2023/01/23 01:51:31;;;;;;;;;;;;;;;2.12;86.77;103071.56;4111175;28;20032;-60
2023/01/23 01:53:35;;;;;;;;;;;;;;;2.12;87.06;103074.25;4105789;28;20029;-59
2023/01/23 01:55:37;;;;;;;;;;;;;;;2.05;86.70;103055.91;4106669;28;20029;-58
2023/01/23 01:57:40;;;;;;;;;;;;;;;2.10;86.82;103070.78;4103993;28;20397;-59
2023/01/23 01:59:43;;;;;;;;;;;;;;;2.10;86.84;103064.56;4104779;28;20484;-60
2023/01/23 02:01:46;;;;;;;;;;;;;;;2.09;87.01;103060.19;4104026;28;20041;-59
2023/01/23 02:03:48;;;;;;;;;;;;;;;2.10;86.80;103068.13;4111968;28;20060;-58
2023/01/23 02:05:50;;;;;;;;;;;;;;;2.09;87.13;103066.38;4111470;28;20025;-61
2023/01/23 02:07:54;;;;;;;;;;;;;;;2.09;87.05;103066.38;4119131;28;20013;-60
2023/01/23 02:09:57;;;;;;;;;;;;;;;2.08;87.10;103071.78;4105929;28;20010;-61
2023/01/23 02:11:59;;;;;;;;;;;;;;;2.08;87.02;103075.28;4118931;28;20024;-59
2023/01/23 02:14:01;;;;;;;;;;;;;;;2.08;87.07;103072.63;4104384;28;20017;-61
2023/01/23 02:16:03;;;;;;;;;;;;;;;2.08;87.02;103071.78;4105665;28;20041;-60
2023/01/23 02:18:05;;;;;;;;;;;;;;;2.09;87.25;103066.38;4104560;28;19927;-61
2023/01/23 02:20:10;;;;;;;;;;;;;;;2.09;87.07;103062.84;4104761;28;20010;-60
2023/01/23 02:22:17;;;;;;;;;;;;;;;2.07;87.30;103062.91;4110833;28;20033;-61
2023/01/23 02:24:20;;;;;;;;;;;;;;;2.08;87.28;103066.44;4101787;28;20032;-59
2023/01/23 02:26:24;;;;;;;;;;;;;;;2.07;86.97;103062.03;4104360;28;20459;-59
2023/01/23 02:28:36;;;;;;;;;;;;;;;2.06;86.98;103069.16;4112025;28;20013;-59
2023/01/23 02:30:38;;;;;;;;;;;;;;;2.06;86.95;103066.50;4105120;28;20025;-59
2023/01/23 02:32:41;;;;;;;;;;;;;;;2.05;86.96;103066.56;4103287;28;20017;-58
2023/01/23 02:34:43;;;;;;;;;;;;;;;2.05;87.17;103056.75;4119891;28;20009;-58
2023/01/23 02:36:46;;;;;;;;;;;;;;;2.04;87.05;103070.16;4104350;28;20025;-59
2023/01/23 02:38:51;;;;;;;;;;;;;;;2.05;86.98;103077.22;4103948;28;20512;-60
2023/01/23 02:40:54;;;;;;;;;;;;;;;2.06;87.16;103073.63;4102720;28;20056;-57
2023/01/23 02:43:01;;;;;;;;;;;;;;;2.05;87.05;103075.41;4101827;28;21661;-59
2023/01/23 02:45:04;;;;;;;;;;;;;;;2.05;86.91;103087.88;4105865;28;20029;-59
2023/01/23 02:47:10;;;;;;;;;;;;;;;2.04;86.91;103072.81;4110259;28;20009;-57
2023/01/23 02:49:12;;;;;;;;;;;;;;;2.04;86.92;103084.38;4112416;28;20838;-59
2023/01/23 02:51:15;;;;;;;;;;;;;;;2.05;87.06;103091.41;4110596;28;20025;-60
2023/01/23 02:53:17;;;;;;;;;;;;;;;2.06;86.90;103090.50;4103554;28;20614;-60
2023/01/23 02:55:20;;;;;;;;;;;;;;;2.06;87.26;103098.50;4103775;28;20021;-59
2023/01/23 02:57:22;;;;;;;;;;;;;;;2.05;87.11;103096.75;4118191;28;20013;-58
2023/01/23 03:01:44;;;;;;;;;;;;;;;2.05;87.04;103107.41;4100894;28;20013;-59
2023/01/23 03:03:50;;;;;;;;;;;;;;;2.04;87.14;103104.81;4103358;28;20024;-59
2023/01/23 03:05:54;;;;;;;;;;;;;;;2.04;87.05;103108.34;4111220;28;20060;-59
2023/01/23 03:07:57;;;;;;;;;;;;;;;2.04;86.89;103105.69;4101940;28;21448;-58
2023/01/23 03:09:59;;;;;;;;;;;;;;;2.04;87.25;103110.13;4103742;28;20021;-60
2023/01/23 03:12:01;;;;;;;;;;;;;;;2.04;87.02;103107.47;4104027;28;20056;-60
2023/01/23 03:14:03;;;;;;;;;;;;;;;2.05;87.13;103106.53;4088044;29;19930;-61
2023/01/23 03:16:07;;;;;;;;;;;;;;;2.03;87.39;103106.59;4103869;28;20025;-61
2023/01/23 03:18:09;;;;;;;;;;;;;;;2.05;87.20;103111.88;4104252;28;20021;-61
2023/01/23 03:20:11;;;;;;;;;;;;;;;2.05;87.28;103111.88;4103736;28;20021;-60
2023/01/23 03:22:14;;;;;;;;;;;;;;;2.05;87.21;103109.22;4103202;28;20028;-61
2023/01/23 03:24:16;;;;;;;;;;;;;;;2.04;87.14;103121.69;4103186;28;20017;-59
2023/01/23 03:26:18;;;;;;;;;;;;;;;2.03;86.88;103119.09;4103817;28;19997;-61
2023/01/23 03:30:40;;;;;;;;;;;;;;;2.03;87.00;103116.41;4065049;28;20555;-60
2023/01/23 03:32:44;;;;;;;;;;;;;;;2.03;87.15;103114.59;4101260;28;20013;-59
2023/01/23 03:34:46;;;;;;;;;;;;;;;2.04;87.03;103121.69;4104800;28;20516;-60
2023/01/23 03:36:48;;;;;;;;;;;;;;;2.04;86.99;103123.47;4103907;28;20020;-59
2023/01/23 03:41:26;;;;;;;;;;;;;;;2.03;86.81;103127.94;4102060;28;20623;-61
2023/01/23 03:43:32;;;;;;;;;;;;;;;2.04;86.74;103131.47;4103382;28;20041;-61
2023/01/23 03:45:34;;;;;;;;;;;;;;;2.03;86.79;103132.41;4102880;28;20021;-61
2023/01/23 03:47:37;;;;;;;;;;;;;;;2.02;86.78;103128.00;4102339;28;20412;-61
2023/01/23 03:49:41;;;;;;;;;;;;;;;2.02;86.53;103139.50;4102895;28;20020;-61
2023/01/23 03:51:43;;;;;;;;;;;;;;;2.02;86.69;103142.19;4105501;28;20018;-60
2023/01/23 03:53:46;;;;;;;;;;;;;;;2.03;86.77;103143.94;4106444;28;20021;-60
2023/01/23 03:55:48;;;;;;;;;;;;;;;2.01;86.55;103139.56;4106907;28;20034;-61
2023/01/23 03:57:54;;;;;;;;;;;;;;;2.02;86.65;103141.31;4105611;28;20017;-61
2023/01/23 04:00:02;;;;;;;;;;;;;;;2.01;86.55;103151.13;4106357;28;20547;-61
2023/01/23 04:02:15;;;;;;;;;;;;;;;2.03;86.72;103151.06;4107029;28;19958;-61
2023/01/23 04:04:17;;;;;;;;;;;;;;;2.02;86.60;103146.66;4106158;28;20014;-61
2023/01/23 04:06:20;;;;;;;;;;;;;;;2.00;86.70;103149.38;4105694;28;20017;-61
2023/01/23 04:08:23;;;;;;;;;;;;;;;2.01;86.72;103148.47;4121842;28;20024;-60
2023/01/23 04:10:29;;;;;;;;;;;;;;;2.00;86.71;103146.72;4106301;28;20032;-60
2023/01/23 04:12:37;;;;;;;;;;;;;;;2.00;86.70;103149.38;4105946;28;20013;-61
2023/01/23 04:14:40;;;;;;;;;;;;;;;2.00;86.69;103160.03;4114608;28;20024;-61
2023/01/23 04:16:42;;;;;;;;;;;;;;;2.03;86.87;103156.41;4104659;28;20017;-60
2023/01/23 04:18:44;;;;;;;;;;;;;;;2.03;86.80;103161.72;4104860;28;20029;-60
2023/01/23 04:20:46;;;;;;;;;;;;;;;2.03;86.53;103161.72;4104457;28;20041;-60
2023/01/23 04:22:50;;;;;;;;;;;;;;;2.01;86.58;103160.91;4106117;28;19958;-61
2023/01/23 04:24:53;;;;;;;;;;;;;;;2.00;86.57;103160.03;4105304;28;20353;-60
2023/01/23 04:26:56;;;;;;;;;;;;;;;2.01;86.73;103158.25;4105206;28;20528;-60
2023/01/23 04:29:00;;;;;;;;;;;;;;;2.01;86.63;103166.22;4105882;28;20001;-60
2023/01/23 04:31:02;;;;;;;;;;;;;;;2.00;86.50;103159.19;4105406;28;20397;-60
2023/01/23 04:33:08;;;;;;;;;;;;;;;2.01;86.50;103163.56;4105596;28;20028;-59
2023/01/23 04:35:10;;;;;;;;;;;;;;;2.01;86.69;103166.22;4121034;28;20545;-60
2023/01/23 04:37:16;;;;;;;;;;;;;;;2.00;86.82;103162.72;4105629;28;20026;-60
2023/01/23 04:39:19;;;;;;;;;;;;;;;1.99;86.71;103158.28;4104840;28;20058;-60
2023/01/23 04:41:25;;;;;;;;;;;;;;;2.00;86.57;103164.53;4102514;28;20025;-60
2023/01/23 04:43:35;;;;;;;;;;;;;;;1.99;86.66;103166.28;4105634;28;20851;-61
2023/01/23 04:45:42;;;;;;;;;;;;;;;2.00;86.69;103168.03;4105394;28;20045;-61
2023/01/23 04:48:07;;;;;;;;;;;;;;;2.00;86.73;103168.03;4119621;28;20423;-60
2023/01/23 04:50:11;;;;;;;;;;;;;;;2.00;86.77;103173.38;4120557;28;20442;-60
2023/01/23 04:52:17;;;;;;;;;;;;;;;2.01;86.64;103169.78;4119131;28;20017;-61
2023/01/23 04:54:29;;;;;;;;;;;;;;;2.02;86.51;103175.97;4107211;28;20017;-60
2023/01/23 04:56:32;;;;;;;;;;;;;;;2.01;86.62;103175.13;4105328;28;20018;-60
2023/01/23 04:58:39;;;;;;;;;;;;;;;2.01;86.54;103182.22;4104956;28;20021;-59
2023/01/23 05:00:43;;;;;;;;;;;;;;;2.00;86.62;103181.38;4105396;28;20009;-60
2023/01/23 05:02:45;;;;;;;;;;;;;;;2.01;86.55;103183.13;4105414;28;20130;-60
2023/01/23 05:04:47;;;;;;;;;;;;;;;2.00;86.55;103178.69;4104816;28;19969;-61
2023/01/23 05:06:50;;;;;;;;;;;;;;;1.99;86.49;103179.63;4104016;28;20010;-59
2023/01/23 05:08:52;;;;;;;;;;;;;;;1.98;86.36;103177.91;4105031;28;20021;-61
2023/01/23 05:11:01;;;;;;;;;;;;;;;1.97;86.27;103182.38;4112194;28;20020;-59
2023/01/23 05:13:03;;;;;;;;;;;;;;;1.97;86.39;103173.50;4103505;28;20425;-59
2023/01/23 05:15:06;;;;;;;;;;;;;;;1.96;86.57;103171.78;4105530;28;20025;-60
2023/01/23 05:17:11;;;;;;;;;;;;;;;1.97;86.63;103178.81;4119916;28;20030;-60
2023/01/23 05:19:17;;;;;;;;;;;;;;;1.99;86.77;103171.63;4104780;28;20021;-56
2023/01/23 05:21:20;;;;;;;;;;;;;;;1.99;86.70;103166.28;4104169;28;20478;-58
2023/01/23 05:23:22;;;;;;;;;;;;;;;1.98;86.68;103172.56;4104237;28;20017;-59
2023/01/23 05:25:26;;;;;;;;;;;;;;;1.99;86.45;103176.97;4102814;28;20013;-60
2023/01/23 05:27:31;;;;;;;;;;;;;;;1.97;86.48;103171.72;4103412;28;20028;-59
2023/01/23 05:29:34;;;;;;;;;;;;;;;1.97;86.66;103174.38;4119900;28;20479;-60
2023/01/23 05:31:41;;;;;;;;;;;;;;;1.97;86.56;103170.81;4103787;28;20026;-59
2023/01/23 05:34:03;;;;;;;;;;;;;;;1.97;86.69;103170.81;4108152;28;20472;-59
2023/01/23 05:36:06;;;;;;;;;;;;;;;1.96;86.39;103174.44;4104119;28;20072;-60
2023/01/23 05:38:08;;;;;;;;;;;;;;;1.96;86.64;103174.44;4104370;28;20029;-61
2023/01/23 05:40:11;;;;;;;;;;;;;;;1.95;86.70;103178.88;4104422;28;20025;-59
2023/01/23 05:42:35;;;;;;;;;;;;;;;1.94;86.54;103169.19;4104579;28;20361;-61
2023/01/23 05:44:56;;;;;;;;;;;;;;;1.94;86.58;103174.50;4112592;28;20033;-60
2023/01/23 05:47:06;;;;;;;;;;;;;;;1.94;86.74;103181.59;4112073;28;20018;-60
2023/01/23 05:49:08;;;;;;;;;;;;;;;1.94;86.85;103182.50;4112577;28;20040;-59
2023/01/23 05:51:10;;;;;;;;;;;;;;;1.95;86.83;103184.22;4103993;28;20415;-59
2023/01/23 05:53:13;;;;;;;;;;;;;;;1.94;86.65;103185.16;4103736;28;20022;-60
2023/01/23 05:55:16;;;;;;;;;;;;;;;1.95;86.81;103196.69;4104576;28;20479;-60
2023/01/23 05:57:21;;;;;;;;;;;;;;;1.94;86.54;103195.81;4104519;28;20045;-61
2023/01/23 06:00:03;;;;;;;;;;;;;;;1.94;86.58;103200.25;4105700;28;20374;-61
2023/01/23 06:02:25;;;;;;;;;;;;;;;1.95;86.71;103202.00;4103344;28;20426;-61
2023/01/23 06:04:56;;;;;;;;;;;;;;;1.94;86.69;103205.59;4095980;28;20009;-58
2023/01/23 06:07:08;;;;;;;;;;;;;;;1.94;86.66;103208.25;4102786;28;20038;-61
2023/01/23 06:09:10;;;;;;;;;;;;;;;1.95;86.28;103212.69;4102119;28;20013;-62
2023/01/23 06:11:13;;;;;;;;;;;;;;;1.95;86.23;103218.00;4101802;28;20021;-61
2023/01/23 06:13:15;;;;;;;;;;;;;;;1.95;86.36;103220.66;4102998;28;20029;-61
2023/01/23 06:15:19;;;;;;;;;;;;;;;1.94;86.29;103214.47;4101542;28;20395;-61
2023/01/23 06:17:21;;;;;;;;;;;;;;;1.95;86.11;103212.69;4107132;28;20347;-61
2023/01/23 06:19:23;;;;;;;;;;;;;;;1.96;86.15;103227.75;4102038;28;20033;-61
2023/01/23 06:21:25;;;;;;;;;;;;;;;1.95;86.20;103231.34;4100824;28;20152;-60
2023/01/23 06:23:29;;;;;;;;;;;;;;;1.95;86.24;103229.53;4098401;28;20029;-61
2023/01/23 06:25:34;;;;;;;;;;;;;;;1.94;86.17;103219.81;4094371;28;19961;-62
2023/01/23 06:27:40;;;;;;;;;;;;;;;1.94;86.01;103222.47;4099272;28;19934;-60
2023/01/23 06:29:44;;;;;;;;;;;;;;;1.94;85.94;103224.25;4117153;28;20053;-62
2023/01/23 06:31:48;;;;;;;;;;;;;;;1.94;86.04;103227.81;4100939;28;20558;-62
2023/01/23 06:33:51;;;;;;;;;;;;;;;1.95;86.00;103226.00;4104668;28;20057;-62
2023/01/23 06:35:57;;;;;;;;;;;;;;;1.95;86.05;103226.00;4104221;28;20065;-62
2023/01/23 06:37:59;;;;;;;;;;;;;;;1.94;85.93;103232.25;4101134;28;20558;-62
2023/01/23 06:40:01;;;;;;;;;;;;;;;1.94;86.20;103233.16;4103766;28;20029;-63
2023/01/23 06:42:08;;;;;;;;;;;;;;;1.93;86.17;103236.72;4101707;28;20029;-61
2023/01/23 06:44:12;;;;;;;;;;;;;;;1.93;86.17;103236.72;4102277;28;20048;-62
2023/01/23 06:46:15;;;;;;;;;;;;;;;1.93;86.05;103241.19;4102804;28;20022;-62
2023/01/23 06:48:19;;;;;;;;;;;;;;;1.93;85.84;103246.53;4102179;28;19926;-62
2023/01/23 06:50:22;;;;;;;;;;;;;;;1.93;85.76;103251.84;4100265;28;19961;-62
2023/01/23 06:52:25;;;;;;;;;;;;;;;1.92;85.89;103255.44;4100274;28;20049;-60
2023/01/23 06:54:27;;;;;;;;;;;;;;;1.93;85.91;103255.38;4110382;28;20531;-61
2023/01/23 06:56:34;;;;;;;;;;;;;;;1.92;85.88;103247.44;4102309;28;20021;-62
2023/01/23 06:58:43;;;;;;;;;;;;;;;1.92;85.74;103250.09;4102490;28;20473;-60
2023/01/23 07:00:53;;;;;;;;;;;;;;;1.93;85.79;103257.19;4111355;28;20030;-61
2023/01/23 07:03:31;;;;;;;;;;;;;;;1.92;85.67;103250.09;4102102;28;20514;-62
2023/01/23 07:05:35;;;;;;;;;;;;;;;1.90;85.61;103251.97;4110274;28;20021;-61
2023/01/23 07:07:37;;;;;;;;;;;;;;;1.88;85.90;103246.69;4110295;28;20016;-61
2023/01/23 07:09:39;;;;;;;;;;;;;;;1.91;85.91;103251.91;4103865;28;19933;-62
2023/01/23 07:11:50;;;;;;;;;;;;;;;1.90;85.71;103252.84;4108849;28;20013;-62
2023/01/23 07:13:52;;;;;;;;;;;;;;;1.91;85.78;103249.25;4111283;28;20013;-59
2023/01/23 07:15:54;;;;;;;;;;;;;;;1.92;85.76;103258.09;4111283;28;20017;-60
2023/01/23 07:17:57;;;;;;;;;;;;;;;1.91;85.88;103261.69;4099596;28;20574;-62
2023/01/23 07:20:01;;;;;;;;;;;;;;;1.91;85.68;103265.25;4100443;28;20021;-61
2023/01/23 07:22:03;;;;;;;;;;;;;;;1.90;85.63;103271.50;4100852;28;20436;-60
2023/01/23 07:24:06;;;;;;;;;;;;;;;1.89;85.60;103266.22;4101436;28;20034;-61
2023/01/23 07:26:08;;;;;;;;;;;;;;;1.91;85.92;103269.69;4101933;28;20636;-60
2023/01/23 07:28:10;;;;;;;;;;;;;;;1.90;85.88;103266.16;4103757;28;20013;-62
2023/01/23 07:30:12;;;;;;;;;;;;;;;1.90;85.77;103263.50;4103767;28;20329;-62
2023/01/23 07:32:14;;;;;;;;;;;;;;;1.91;85.71;103265.25;4102681;28;20025;-60
2023/01/23 07:34:16;;;;;;;;;;;;;;;1.90;85.75;103266.16;4104336;28;20076;-60
2023/01/23 07:36:19;;;;;;;;;;;;;;;1.90;85.80;103267.97;4103852;28;20021;-61
2023/01/23 07:38:22;;;;;;;;;;;;;;;1.91;85.78;103275.00;4103240;28;20017;-61
2023/01/23 07:40:24;;;;;;;;;;;;;;;1.91;86.15;103269.69;4103830;28;20017;-61
2023/01/23 07:42:26;;;;;;;;;;;;;;;1.92;86.22;103266.09;4103550;28;20449;-62
2023/01/23 07:44:28;;;;;;;;;;;;;;;1.93;85.96;103265.19;4104417;28;20459;-62
2023/01/23 07:46:30;;;;;;;;;;;;;;;1.93;86.16;103263.38;4103042;28;20013;-62
2023/01/23 07:48:32;;;;;;;;;;;;;;;1.94;86.13;103258.91;4102832;28;20013;-62
2023/01/23 07:50:34;;;;;;;;;;;;;;;1.95;85.99;103260.66;4101606;28;20662;-61
2023/01/23 07:52:38;;;;;;;;;;;;;;;1.96;85.93;103273.91;4101961;28;20001;-60
2023/01/23 07:54:40;;;;;;;;;;;;;;;1.96;85.73;103275.72;4102440;28;20005;-62
2023/01/23 07:56:41;;;;;;;;;;;;;;;1.96;85.58;103263.25;4102946;28;20033;-62
2023/01/23 07:58:43;;;;;;;;;;;;;;;1.96;85.45;103270.41;4104689;28;20025;-60
2023/01/23 08:00:45;;;;;;;;;;;;;;;1.96;85.38;103273.91;4103150;28;20052;-62
2023/01/23 08:02:47;;;;;;;;;;;;;;;1.96;85.38;103276.59;4104214;28;20001;-62
2023/01/23 08:04:49;;;;;;;;;;;;;;;1.97;85.55;103281.00;4103557;28;20049;-62
2023/01/23 08:06:51;;;;;;;;;;;;;;;1.97;85.53;103280.13;4103042;28;20013;-61
2023/01/23 08:08:54;;;;;;;;;;;;;;;1.97;85.66;103278.34;4103198;28;20024;-60
2023/01/23 08:10:56;;;;;;;;;;;;;;;1.93;85.63;103273.19;4102484;28;20017;-62
2023/01/23 08:12:58;;;;;;;;;;;;;;;1.98;85.90;103276.53;4102457;28;20053;-62
2023/01/23 08:15:00;;;;;;;;;;;;;;;2.00;85.77;103290.66;4103839;28;20025;-62
2023/01/23 08:17:02;;;;;;;;;;;;;;;2.01;85.94;103287.06;4103765;28;20365;-60
2023/01/23 08:19:06;;;;;;;;;;;;;;;2.00;85.82;103281.81;4103893;28;20018;-61
2023/01/23 08:21:08;;;;;;;;;;;;;;;2.00;85.72;103285.31;4103544;28;20028;-62
2023/01/23 08:23:09;;;;;;;;;;;;;;;2.01;85.71;103288.84;4104267;28;20029;-62
2023/01/23 08:25:13;;;;;;;;;;;;;;;1.99;85.71;103294.25;4103759;28;20021;-62
2023/01/23 08:27:15;;;;;;;;;;;;;;;2.01;85.57;103299.50;4103620;28;20091;-62
2023/01/23 08:29:17;;;;;;;;;;;;;;;2.00;85.54;103293.31;4104614;28;20452;-62
2023/01/23 08:31:19;;;;;;;;;;;;;;;2.01;85.57;103305.75;4102643;28;20389;-62
2023/01/23 08:33:21;;;;;;;;;;;;;;;1.98;85.46;103303.19;4104691;28;20009;-62
2023/01/23 08:35:23;;;;;;;;;;;;;;;2.01;85.55;103307.50;4104369;28;20384;-62
2023/01/23 08:37:25;;;;;;;;;;;;;;;1.99;85.40;103307.56;4104507;28;20032;-62
2023/01/23 08:39:27;;;;;;;;;;;;;;;2.00;85.49;103314.66;4106994;28;20021;-61
2023/01/23 08:41:30;;;;;;;;;;;;;;;2.01;85.69;103315.50;4106729;28;20029;-62
2023/01/23 08:43:32;;;;;;;;;;;;;;;1.97;85.66;103320.97;4106030;28;20029;-60
2023/01/23 08:45:34;;;;;;;;;;;;;;;1.97;85.62;103339.66;4106229;28;20014;-62
2023/01/23 08:47:37;;;;;;;;;;;;;;;1.94;85.20;103334.44;4105093;28;20017;-61
2023/01/23 08:49:39;;;;;;;;;;;;;;;1.93;85.27;103330.00;4104918;28;20013;-60
2023/01/23 08:51:41;;;;;;;;;;;;;;;1.93;85.49;103335.34;4104690;28;19934;-61
2023/01/23 08:53:43;;;;;;;;;;;;;;;1.94;85.45;103342.41;4106392;28;20020;-60
2023/01/23 08:55:45;;;;;;;;;;;;;;;1.94;85.43;103342.41;4106271;28;20373;-59
2023/01/23 08:57:48;;;;;;;;;;;;;;;1.95;85.27;103341.47;4106019;28;20033;-61
2023/01/23 08:59:50;;;;;;;;;;;;;;;1.95;85.51;103340.63;4106676;28;20025;-61
2023/01/23 09:01:52;;;;;;;;;;;;;;;1.96;85.45;103348.56;4105366;28;20005;-59
2023/01/23 09:03:54;;;;;;;;;;;;;;;1.97;85.32;103349.41;4105520;28;20026;-60
2023/01/23 09:05:56;;;;;;;;;;;;;;;1.98;85.28;103353.84;4104545;28;20085;-60
2023/01/23 09:07:58;;;;;;;;;;;;;;;1.98;85.13;103353.84;4104247;28;20024;-61
2023/01/23 09:10:00;;;;;;;;;;;;;;;1.96;85.18;103353.88;4104960;28;20013;-63
2023/01/23 09:12:02;;;;;;;;;;;;;;;1.95;85.00;103362.78;4104184;28;19933;-59
2023/01/23 09:14:05;;;;;;;;;;;;;;;1.94;85.19;103371.75;4104726;28;20029;-61
2023/01/23 09:16:08;;;;;;;;;;;;;;;1.95;85.38;103378.78;4104996;28;20012;-60
2023/01/23 09:18:10;;;;;;;;;;;;;;;1.97;85.30;103376.97;4105251;28;20013;-61
2023/01/23 09:20:12;;;;;;;;;;;;;;;1.98;85.04;103378.69;4105878;28;20017;-60
2023/01/23 09:22:14;;;;;;;;;;;;;;;2.00;85.10;103375.09;4106008;28;20379;-61
2023/01/23 09:24:16;;;;;;;;;;;;;;;2.00;85.49;103375.09;4106407;28;20021;-61
2023/01/23 09:26:18;;;;;;;;;;;;;;;2.02;85.53;103379.44;4105804;28;20471;-61
2023/01/23 09:28:20;;;;;;;;;;;;;;;2.03;85.50;103385.66;4106242;28;20678;-61
2023/01/23 09:30:23;;;;;;;;;;;;;;;2.04;85.35;103387.38;4106118;28;20008;-61
2023/01/23 09:32:25;;;;;;;;;;;;;;;2.03;85.24;103391.84;4105640;28;19930;-60
2023/01/23 09:34:28;;;;;;;;;;;;;;;2.06;85.39;103398.88;4106095;28;20025;-61
2023/01/23 09:36:30;;;;;;;;;;;;;;;2.07;85.26;103397.91;4105842;28;20029;-60
2023/01/23 09:38:32;;;;;;;;;;;;;;;2.06;84.84;103399.72;4106703;28;20025;-60
2023/01/23 09:40:35;;;;;;;;;;;;;;;2.06;84.71;103402.41;4106516;28;20508;-61
2023/01/23 09:42:37;;;;;;;;;;;;;;;2.06;84.91;103399.72;4105430;28;20044;-62
2023/01/23 09:44:40;;;;;;;;;;;;;;;2.06;84.88;103396.19;4106621;28;20021;-62
2023/01/23 09:46:44;;;;;;;;;;;;;;;2.05;84.62;103391.78;4105431;28;20061;-62
2023/01/23 09:48:46;;;;;;;;;;;;;;;2.04;84.82;103393.59;4106297;28;20057;-61
2023/01/23 09:50:52;;;;;;;;;;;;;;;2.04;85.07;103388.25;4104929;28;20691;-62
2023/01/23 09:52:55;;;;;;;;;;;;;;;2.06;85.16;103399.72;4105708;28;20448;-62
2023/01/23 09:54:58;;;;;;;;;;;;;;;2.07;85.20;103387.25;4106242;28;20049;-62
2023/01/23 09:57:00;;;;;;;;;;;;;;;2.08;85.02;103397.00;4105638;28;20022;-62
2023/01/23 09:59:03;;;;;;;;;;;;;;;2.09;84.83;103398.75;4105289;28;20037;-62
2023/01/23 10:01:05;;;;;;;;;;;;;;;2.08;85.11;103397.88;4104981;28;20073;-62
2023/01/23 10:03:11;;;;;;;;;;;;;;;2.08;85.01;103392.53;4105466;28;20017;-62
2023/01/23 10:05:14;;;;;;;;;;;;;;;2.08;84.81;103392.53;4106058;28;20017;-62
2023/01/23 10:07:23;;;;;;;;;;;;;;;2.08;84.99;103395.19;4104727;28;20029;-62
2023/01/23 10:09:28;;;;;;;;;;;;;;;2.08;85.00;103405.00;4105805;28;20017;-61
2023/01/23 10:11:33;;;;;;;;;;;;;;;2.07;85.08;103401.47;4105111;28;20025;-61
2023/01/23 10:13:37;;;;;;;;;;;;;;;2.07;84.80;103395.25;4103570;28;19938;-62
2023/01/23 10:15:44;;;;;;;;;;;;;;;2.07;84.99;103397.91;4104076;28;20033;-60
2023/01/23 10:17:48;;;;;;;;;;;;;;;2.07;84.83;103396.16;4104993;28;20017;-61
2023/01/23 10:19:55;;;;;;;;;;;;;;;2.07;84.81;103398.81;4105460;28;20017;-61
2023/01/23 10:21:59;;;;;;;;;;;;;;;2.08;84.88;103403.19;4105039;28;20020;-60
2023/01/23 10:24:02;;;;;;;;;;;;;;;2.08;84.71;103397.88;4104725;28;20456;-62
2023/01/23 10:26:04;;;;;;;;;;;;;;;2.08;84.76;103405.88;4104947;28;20464;-61
2023/01/23 10:28:14;;;;;;;;;;;;;;;2.09;85.00;103407.63;4104554;28;20029;-61
2023/01/23 10:30:19;;;;;;;;;;;;;;;2.10;85.06;103401.38;4105202;28;20017;-62
2023/01/23 10:32:23;;;;;;;;;;;;;;;2.11;84.78;103404.91;4104430;28;20021;-62
2023/01/23 10:34:25;;;;;;;;;;;;;;;2.10;84.86;103404.03;4104679;28;19989;-62
2023/01/23 10:36:29;;;;;;;;;;;;;;;2.11;84.88;103410.22;4104982;28;20044;-61
2023/01/23 10:38:33;;;;;;;;;;;;;;;2.12;85.03;103414.63;4105157;28;20017;-61
2023/01/23 10:42:54;;;;;;;;;;;;;;;2.16;85.15;103413.59;4104604;28;20009;-61
2023/01/23 10:44:56;;;;;;;;;;;;;;;2.18;85.12;103403.75;4105602;28;20445;-61
2023/01/23 10:46:59;;;;;;;;;;;;;;;2.20;85.09;103407.22;4102285;28;20042;-60
2023/01/23 10:49:02;;;;;;;;;;;;;;;2.21;84.91;103414.31;4087390;28;19927;-61
2023/01/23 10:51:04;;;;;;;;;;;;;;;2.23;84.87;103404.44;4101771;28;20013;-61
2023/01/23 10:53:08;;;;;;;;;;;;;;;2.24;84.62;103406.19;4102969;28;20053;-61
2023/01/23 10:55:25;;;;;;;;;;;;;;;2.24;84.46;103400.88;4105358;28;19931;-60